Alco, Arkansas
Current Conditions -  °F | °C
As of 6:15 AM on Friday 28 Nov 2014 (Local Time) from KCCA Reporting Station
Haze Haze  
Wind Chill: -4°   Ceiling: Unl
Heat Index: -4°   Visibility: 5mi
Dew Point: -5°   Wind: 0mph
Humidity: 93%   Direction: NA
Pressure: 30.37"   Gusts: NA
Location:  35.89°N, 92.37°W
Report Text: KCCA 281215Z AUTO 00000KT 5SM BR CLR M04/M05 A3037 RMK AO2
Loading
Personal Weather Stations






























Interactive Weather Map New forecast layout! Learn more

10-Day Weather Forecast

Advertisements
Track Severe Weather on mobile